Terminal Aerodrome Forecast
Issued by NWS

Home | Current Version | Previous Version | Text Only | Print | Product List | Glossary On
Versions: 1 2 3 4 5 6 7 8 9 10 11 12 13 14 15 16 17 18 19
000
FTUS41 KPBZ 271735
TAFHLG
TAF
KHLG 271735Z 2718/2818 25004KT P6SM BKN035
     FM280500 00000KT 1SM BR SCT130
     FM280800 00000KT 1/2SM FG SCT045
     FM281300 00000KT P6SM SCT120=

USA.gov is the U.S. government's official web portal to all federal, state and local government web resources and services.